Latest Weather Observations for Geelong Racecourse

IDV60801

Issued at 8:02 am EST Thursday 29 September 2016 (issued every 30 minutes, with the page automatically refreshed every 10 minutes)

About weather observations | Map of weather stations | Latest weather observations for VIC | Other Formats
Station Details ID: 087184 Name: GEELONG RACECOURSE Lat: -38.17 Lon: 144.38 Height: 12.9 m
Data from the previous 72 hours. | See also: Recent months at Geelong Racecourse
Date/Time
EST
Temp
°C
App
Temp
°C
Dew
Point
°C
Rel
Hum
%
Delta-T
°C
Wind Press
QNH
hPa
Press
MSL
hPa
Rain since
9am
mm
Dir  Spd
km/h
Gust
km/h
Spd
kts
Gust
kts
29/08:00am 12.6 10.6 10.0 84 1.3 NNW 11 15 6 8 988.9 988.9 3.4
29/07:30am 12.4 10.1 8.9 79 1.8 NW 11 17 6 9 988.7 988.7 3.4
29/07:00am 12.6 8.5 8.5 76 2.1 NW 20 33 11 18 988.5 988.5 3.4
29/06:30am 13.2 11.4 12.1 93 0.6 NNW 13 24 7 13 987.8 987.8 3.4
29/06:00am 13.4 10.8 12.1 92 0.7 NNE 17 28 9 15 987.2 987.2 3.4
29/05:30am 13.2 10.2 12.1 93 0.6 NNE 19 30 10 16 987.4 987.4 3.4
29/05:00am 13.2 10.2 12.1 93 0.6 NNE 19 30 10 16 987.2 987.2 3.4
29/04:30am 13.3 9.7 12.0 92 0.7 NNE 22 35 12 19 987.5 987.5 3.4
29/04:03am 13.4 8.7 12.1 92 0.7 NNE 28 50 15 27 987.6 987.6 3.4
29/04:00am 13.4 9.1 12.1 92 0.7 NNE 26 43 14 23 987.6 987.6 3.4
29/03:30am 13.4 8.7 12.1 92 0.7 NNE 28 41 15 22 988.3 988.3 3.4
29/03:04am 13.3 8.2 12.0 92 0.7 NNE 30 52 16 28 988.5 988.5 3.4
29/03:00am 13.3 8.7 12.2 93 0.6 NE 28 43 15 23 988.6 988.6 3.4
29/02:30am 12.8 7.6 11.7 93 0.6 NE 30 46 16 25 988.3 988.3 3.4
29/02:23am 12.8 8.0 11.7 93 0.6 NE 28 46 15 25 988.9 988.9 3.4
29/02:00am 13.1 9.1 11.8 92 0.7 NE 24 39 13 21 990.4 990.4 2.8
29/01:30am 13.0 9.9 11.7 92 0.7 NNE 19 30 10 16 991.6 991.6 2.4
29/01:00am 13.0 9.8 11.9 93 0.6 NNE 20 32 11 17 992.4 992.4 2.4
29/12:30am 13.9 9.3 11.1 83 1.5 NE 26 39 14 21 992.8 992.8 1.8
29/12:00am 13.8 10.4 11.3 85 1.3 NE 20 33 11 18 993.2 993.2 1.4
 
Date/Time
EST
Temp
°C
App
Temp
°C
Dew
Point
°C
Rel
Hum
%
Delta-T
°C
Wind Press
QNH
hPa
Press
MSL
hPa
Rain since
9am
mm
Dir  Spd
km/h
Gust
km/h
Spd
kts
Gust
kts
28/11:30pm 14.3 10.6 10.3 77 2.1 NE 20 33 11 18 994.3 994.3 0.6
28/11:00pm 14.2 11.7 11.2 82 1.6 NE 15 26 8 14 995.1 995.1 0.6
28/10:30pm 14.1 11.1 10.7 80 1.8 ENE 17 26 9 14 996.6 996.6 0.2
28/10:00pm 14.7 12.2 9.7 72 2.6 ENE 13 26 7 14 997.8 997.8 0.0
28/09:30pm 14.8 12.0 8.7 67 3.1 NE 13 20 7 11 998.7 998.7 0.0
28/09:00pm 14.9 11.4 8.6 66 3.2 NNE 17 32 9 17 998.9 998.9 0.0
28/08:30pm 14.9 11.0 8.8 67 3.1 NNE 19 28 10 15 998.8 998.8 0.0
28/08:00pm 15.1 11.0 8.8 66 3.2 NE 20 35 11 19 998.9 998.9 0.0
28/07:30pm 15.1 11.2 8.8 66 3.2 NE 19 26 10 14 999.2 999.2 0.0
28/07:00pm 15.2 10.7 8.4 64 3.5 NE 22 35 12 19 999.4 999.4 0.0
28/06:30pm 15.2 11.2 8.4 64 3.4 NE 19 32 10 17 1000.5 1000.5 0.0
28/06:00pm 15.3 10.8 8.5 64 3.5 NE 22 33 12 18 1000.8 1000.8 0.0
28/05:30pm 15.5 11.0 8.7 64 3.5 NE 22 33 12 18 1001.0 1001.0 0.0
28/05:00pm 15.8 10.9 8.5 62 3.7 NNE 24 41 13 22 1001.4 1001.4 0.0
28/04:30pm 16.1 11.2 8.6 61 3.8 NNE 24 41 13 22 1001.9 1001.9 0.0
28/04:00pm 16.6 10.6 8.6 59 4.1 NNE 30 44 16 24 1002.1 1002.1 0.0
28/03:30pm 17.0 11.9 9.2 60 4.0 NE 26 39 14 21 1002.0 1002.0 0.0
28/03:00pm 17.3 12.3 9.5 60 4.1 NE 26 39 14 21 1002.7 1002.7 0.0
28/02:30pm 18.4 13.9 10.0 58 4.5 NE 24 39 13 21 1003.2 1003.2 0.0
28/02:00pm 18.9 15.1 9.7 55 4.9 NE 20 33 11 18 1003.9 1003.9 0.0
28/01:30pm 18.4 15.1 9.5 56 4.7 NE 17 26 9 14 1005.3 1005.3 0.0
28/01:00pm 17.8 14.1 9.4 58 4.4 ENE 19 28 10 15 1006.0 1006.0 0.0
28/12:30pm 17.9 14.2 9.5 58 4.4 NE 19 28 10 15 1007.1 1007.1 0.0
28/12:00pm 17.6 14.8 10.0 61 4.0 ENE 15 20 8 11 1008.2 1008.2 0.0
28/11:30am 17.2 14.2 9.4 60 4.1 NE 15 20 8 11 1009.3 1009.3 0.0
28/11:00am 17.1 15.0 9.8 62 3.8 NE 11 15 6 8 1010.1 1010.1 0.0
28/10:30am 16.8 14.6 9.2 61 3.9 NE 11 15 6 8 1010.6 1010.6 0.0
28/10:00am 15.7 13.5 9.4 66 3.3 NE 11 17 6 9 1010.9 1010.9 0.0
28/09:30am 14.9 12.5 8.8 67 3.1 NE 11 15 6 8 1011.3 1011.3 0.0
28/09:00am 14.6 12.7 9.0 69 2.9 NE 9 15 5 8 1011.6 1011.6 1.2
28/08:30am 13.8 11.7 8.2 69 2.8 N 9 17 5 9 1012.0 1012.0 1.2
28/08:00am 12.3 10.5 7.8 74 2.2 N 7 13 4 7 1012.2 1012.2 1.2
28/07:30am 11.1 8.8 7.6 79 1.7 N 9 13 5 7 1012.2 1012.2 1.2
28/07:00am 9.6 8.1 8.4 92 0.6 NNW 6 9 3 5 1012.3 1012.3 1.2
28/06:30am 8.1 5.7 7.0 93 0.5 NNW 9 13 5 7 1012.2 1012.2 1.2
28/06:00am 7.1 4.5 6.0 93 0.5 NNW 9 11 5 6 1012.0 1012.0 1.2
28/05:30am 6.9 4.6 5.8 93 0.5 N 7 9 4 5 1012.0 1012.0 1.2
28/05:00am 6.6 4.3 5.6 93 0.4 NNW 7 7 4 4 1012.1 1012.1 1.2
28/04:30am 6.8 4.7 5.7 93 0.5 NNW 6 9 3 5 1012.0 1012.0 1.2
28/04:00am 7.5 5.3 6.4 93 0.5 NNW 7 11 4 6 1012.0 1012.0 1.2
28/03:30am 8.0 5.9 6.8 92 0.6 NW 7 9 4 5 1012.0 1012.0 1.2
28/03:00am 8.1 5.3 6.9 92 0.6 NW 11 15 6 8 1012.0 1012.0 1.2
28/02:30am 8.0 5.1 6.5 90 0.7 NW 11 15 6 8 1012.1 1012.1 1.2
28/02:00am 8.4 5.5 6.7 89 0.8 NW 11 17 6 9 1012.1 1012.1 1.2
28/01:30am 8.2 5.7 6.5 89 0.8 NW 9 13 5 7 1012.1 1012.1 1.2
28/01:00am 8.4 6.0 7.0 91 0.7 NW 9 11 5 6 1012.2 1012.2 1.2
28/12:30am 8.0 6.1 6.8 92 0.6 NNW 6 7 3 4 1012.4 1012.4 1.2
28/12:00am 8.1 6.2 6.9 92 0.6 N 6 7 3 4 1012.4 1012.4 1.2
 
Date/Time
EST
Temp
°C
App
Temp
°C
Dew
Point
°C
Rel
Hum
%
Delta-T
°C
Wind Press
QNH
hPa
Press
MSL
hPa
Rain since
9am
mm
Dir  Spd
km/h
Gust
km/h
Spd
kts
Gust
kts
27/11:30pm 8.2 6.4 7.0 92 0.6 N 6 7 3 4 1012.5 1012.5 1.2
27/11:00pm 8.3 7.2 7.1 92 0.6 N 2 4 1 2 1012.4 1012.4 1.2
27/10:30pm 8.7 6.9 7.2 90 0.7 NNE 6 7 3 4 1012.6 1012.6 1.2
27/10:00pm 9.4 8.1 7.5 88 0.9 N 4 6 2 3 1012.7 1012.7 1.2
27/09:30pm 9.9 8.6 7.8 87 1.0 N 4 6 2 3 1012.7 1012.7 1.2
27/09:00pm 10.1 8.6 8.4 89 0.8 N 6 7 3 4 1012.9 1012.9 1.2
27/08:30pm 10.6 9.0 7.8 83 1.4 N 6 6 3 3 1012.9 1012.9 1.2
27/08:00pm 10.8 8.9 6.7 76 1.9 N 6 6 3 3 1012.8 1012.8 1.2
27/07:30pm 11.0 10.2 6.6 74 2.1 CALM 0 0 0 0 1012.7 1012.7 1.2
27/07:00pm 11.7 10.7 5.6 66 2.8 CALM 0 2 0 1 1012.8 1012.8 1.2
27/06:30pm 12.6 10.9 5.8 63 3.2 WNW 4 4 2 2 1012.7 1012.7 1.2
27/06:00pm 13.2 10.6 6.1 62 3.4 W 9 13 5 7 1012.5 1012.5 1.2
27/05:30pm 14.2 10.9 6.6 60 3.7 WSW 13 22 7 12 1012.4 1012.4 1.2
27/05:00pm 14.6 10.8 5.7 55 4.2 W 15 20 8 11 1012.1 1012.1 1.2
27/04:30pm 15.1 11.1 6.7 57 4.1 W 17 24 9 13 1011.7 1011.7 1.2
27/04:00pm 15.3 10.9 7.3 59 4.0 W 20 30 11 16 1011.6 1011.6 1.2
27/03:30pm 15.2 10.8 7.5 60 3.8 WSW 20 28 11 15 1011.4 1011.4 1.2
27/03:00pm 15.2 10.7 7.0 58 4.0 WSW 20 33 11 18 1011.5 1011.5 1.2
27/02:30pm 14.3 10.2 7.8 65 3.2 WSW 19 32 10 17 1011.5 1011.5 1.2
27/02:00pm 14.8 9.9 9.8 72 2.6 W 26 37 14 20 1011.6 1011.6 1.2
27/01:30pm 12.9 9.9 11.8 93 0.6 W 19 28 10 15 1011.8 1011.8 1.2
27/01:00pm 13.4 9.9 12.1 92 0.7 W 22 35 12 19 1011.7 1011.7 1.2
27/12:30pm 11.8 7.9 10.9 94 0.5 W 22 32 12 17 1011.7 1011.7 1.2
27/12:00pm 13.0 9.8 11.9 93 0.6 WNW 20 32 11 17 1011.5 1011.5 0.4
27/11:30am 14.7 11.7 10.5 76 2.2 NW 17 24 9 13 1011.3 1011.3 0.0
27/11:00am 14.1 10.8 10.9 81 1.7 W 19 28 10 15 1011.5 1011.5 0.0
27/10:30am 12.6 10.1 11.2 91 0.7 W 15 24 8 13 1011.6 1011.6 0.0
27/10:00am 12.0 9.0 10.7 92 0.7 WNW 17 28 9 15 1011.6 1011.6 0.0
27/09:30am 10.9 7.7 9.8 93 0.6 WNW 17 28 9 15 1011.5 1011.5 0.0
27/09:00am 9.8 6.7 8.7 93 0.5 WNW 15 26 8 14 1011.3 1011.3 7.0
27/08:30am 8.9 5.2 7.8 93 0.5 WNW 17 32 9 17 1011.2 1011.2 7.0
27/08:00am 7.8 3.5 6.9 94 0.4 WNW 19 37 10 20 1011.0 1011.0 7.0
27/07:30am 7.4 2.8 6.3 93 0.5 WNW 20 39 11 21 1010.6 1010.6 7.0
27/07:00am 7.3 3.9 6.1 92 0.5 WNW 13 20 7 11 1010.5 1010.5 7.0
27/06:30am 6.1 2.9 5.1 93 0.4 WNW 11 15 6 8 1010.3 1010.3 7.0
27/06:00am 5.8 3.3 4.8 93 0.4 NW 7 13 4 7 1009.8 1009.8 7.0
27/05:30am 5.8 3.3 4.8 93 0.4 WNW 7 13 4 7 1009.6 1009.6 7.0
27/05:00am 5.7 3.2 4.7 93 0.4 W 7 11 4 6 1009.5 1009.5 7.0
27/04:30am 6.1 2.9 5.1 93 0.4 WNW 11 17 6 9 1009.4 1009.4 7.0
27/04:00am 6.5 3.0 5.5 93 0.4 WNW 13 20 7 11 1009.3 1009.3 7.0
27/03:30am 6.8 3.4 5.7 93 0.5 WNW 13 22 7 12 1009.1 1009.1 7.0
27/03:00am 7.0 3.6 5.9 93 0.5 WNW 13 24 7 13 1008.9 1008.9 7.0
27/02:30am 7.3 3.6 6.2 93 0.5 WNW 15 32 8 17 1009.1 1009.1 7.0
27/02:00am 7.6 3.2 6.5 93 0.5 NW 19 26 10 14 1009.0 1009.0 7.0
27/01:30am 8.1 4.9 7.0 93 0.5 WNW 13 20 7 11 1009.3 1009.3 7.0
27/01:00am 8.2 5.1 7.1 93 0.5 WNW 13 19 7 10 1009.5 1009.5 7.0
27/12:30am 8.3 4.8 7.1 92 0.6 WNW 15 20 8 11 1009.4 1009.4 7.0
27/12:00am 7.9 5.8 6.8 93 0.5 WNW 7 13 4 7 1009.5 1009.5 7.0
 
Date/Time
EST
Temp
°C
App
Temp
°C
Dew
Point
°C
Rel
Hum
%
Delta-T
°C
Wind Press
QNH
hPa
Press
MSL
hPa
Rain since
9am
mm
Dir  Spd
km/h
Gust
km/h
Spd
kts
Gust
kts
26/11:30pm 7.9 6.1 7.0 94 0.4 NW 6 9 3 5 1009.6 1009.6 7.0
26/11:00pm 8.0 6.2 7.1 94 0.4 WNW 6 9 3 5 1009.9 1009.9 7.0
26/10:30pm 8.1 5.7 7.2 94 0.4 NW 9 11 5 6 1010.1 1010.1 7.0
26/10:00pm 8.1 6.7 7.2 94 0.4 NW 4 6 2 3 1010.1 1010.1 7.0
26/09:30pm 8.1 6.3 7.2 94 0.4 NNW 6 9 3 5 1010.0 1010.0 7.0
26/09:00pm 8.2 6.2 7.3 94 0.4 NNW 7 13 4 7 1010.2 1010.2 7.0
26/08:30pm 8.2 5.4 7.1 93 0.5 WNW 11 17 6 9 1010.4 1010.4 6.4
26/08:00pm 8.3 4.8 7.4 94 0.4 W 15 26 8 14 1010.6 1010.6 6.2
26/07:30pm 8.4 3.3 7.5 94 0.4 W 24 35 13 19 1010.5 1010.5 4.0
26/07:19pm 9.1 4.1 8.0 93 0.5 WNW 24 44 13 24 1010.6 1010.6 2.6
26/07:00pm 11.6 9.0 9.3 86 1.2 NNW 13 19 7 10 1009.3 1009.3 0.2
26/06:30pm 11.8 8.5 7.9 77 1.9 NNW 15 24 8 13 1008.8 1008.8 0.0
26/06:00pm 12.9 8.3 6.3 64 3.1 NW 20 43 11 23 1008.6 1008.6 0.0
26/05:30pm 14.3 9.8 6.2 58 3.9 NNW 19 37 10 20 1008.4 1008.4 0.0
26/05:26pm 14.6 11.3 6.4 58 4.0 NNW 13 37 7 20 1008.3 1008.3 0.0
26/05:00pm 14.6 13.2 8.8 68 2.9 NNE 6 9 3 5 1008.1 1008.1 0.0
26/04:30pm 15.3 12.2 7.1 58 4.0 N 13 17 7 9 1007.8 1007.8 0.0
26/04:00pm 16.0 12.5 5.6 50 5.0 NNW 13 22 7 12 1007.9 1007.9 0.0
26/03:30pm 16.2 13.6 6.3 52 4.8 N 9 15 5 8 1008.1 1008.1 0.0
26/03:00pm 16.2 13.8 6.9 54 4.6 NNW 9 20 5 11 1008.5 1008.5 0.0
26/02:30pm 15.4 11.3 6.2 54 4.4 NW 17 26 9 14 1009.0 1009.0 0.0
26/02:00pm 15.9 12.4 7.4 57 4.2 NW 15 22 8 12 1009.2 1009.2 0.0
26/01:30pm 15.6 11.9 6.1 53 4.6 NW 15 26 8 14 1009.5 1009.5 0.0
26/01:00pm 16.7 12.4 7.1 53 4.8 NW 19 24 10 13 1009.9 1009.9 0.0
26/12:30pm 17.1 13.9 8.5 57 4.4 NW 15 26 8 14 1010.3 1010.3 0.0
26/12:00pm 16.3 12.2 6.4 52 4.8 NW 17 24 9 13 1010.9 1010.9 0.0
26/11:30am 15.1 11.5 6.9 58 4.0 NW 15 28 8 15 1011.3 1011.3 0.0
26/11:00am 14.7 12.1 6.0 56 4.2 NW 9 17 5 9 1011.6 1011.6 0.0
26/10:30am 14.1 11.3 6.9 62 3.5 NW 11 19 6 10 1012.0 1012.0 0.0
26/10:00am 14.5 12.1 8.7 68 2.9 NNW 11 19 6 10 1012.3 1012.3 0.0
26/09:30am 13.9 12.0 9.1 73 2.4 NW 9 15 5 8 1012.6 1012.6 0.0
26/09:00am 13.0 10.4 9.3 78 1.9 NW 13 19 7 10 1012.6 1012.6 0.4
26/08:30am 12.0 10.0 8.7 80 1.6 NW 9 13 5 7 1012.7 1012.7 0.4

Other Formats:

Comma delimited format used in spreadsheet applications
http://www.bom.gov.au/fwo/IDV60801/IDV60801.94857.axf

JavaScript Object Notation format (JSON) in row-major order
http://www.bom.gov.au/fwo/IDV60801/IDV60801.94857.json